DBV weather

Dubrovnik Airport
Dubrovnik, Dubrovnik-Neretva County, Croatia

Public forecast

Using degrees Celsius for public forecast. Weather courtesy of forecast.io.

Current aviation weather report (METAR) for Dubrovnik Airport

Retrieved 2020/04/03 07:30 UTC (6 minutes ago):

LDDU 030730Z 10005KT 070V130 CAVOK 10/01 Q1013 NOSIG

Aviation forecast (TAF) for Dubrovnik Airport

Retrieved 2020/04/03 06:30 UTC (1 hour ago):

TAF LDDU 030525Z 0306/0406 02006KT CAVOK TX12/0311Z TN06/0400Z PROB30 TEMPO 0314/0318 28007KT BECMG 0404/0406 02012KT